createdAt,value
2019-04-10T00:00:59.225Z,100636.05
2019-04-10T00:03:33.590Z,100631.61
2019-04-10T00:06:02.596Z,100631.64
2019-04-10T00:08:32.473Z,100633.47
2019-04-10T00:11:02.966Z,100639.30
2019-04-10T00:13:34.180Z,100636.65
2019-04-10T00:16:03.825Z,100635.69
2019-04-10T00:18:33.805Z,100634.05
2019-04-10T00:21:03.257Z,100641.70
2019-04-10T00:23:33.194Z,100638.74
2019-04-10T00:26:03.606Z,100643.52
2019-04-10T00:28:33.866Z,100639.05
2019-04-10T00:31:03.889Z,100645.38
2019-04-10T00:33:34.676Z,100642.04
2019-04-10T00:36:04.103Z,100645.73
2019-04-10T00:38:33.696Z,100651.08
2019-04-10T00:41:03.915Z,100648.96
2019-04-10T00:43:33.699Z,100646.63
2019-04-10T00:46:04.077Z,100650.13
2019-04-10T00:48:34.199Z,100651.64
2019-04-10T00:51:03.539Z,100655.47
2019-04-10T00:53:33.502Z,100649.19
2019-04-10T00:56:03.971Z,100651.16
2019-04-10T00:58:33.477Z,100651.33
2019-04-10T01:01:03.430Z,100655.14
2019-04-10T01:03:48.050Z,100651.84
2019-04-10T01:06:17.066Z,100652.83
2019-04-10T01:08:47.024Z,100654.14
2019-04-10T01:11:17.123Z,100657.13
2019-04-10T01:13:47.403Z,100650.00
2019-04-10T01:16:17.817Z,100652.50
2019-04-10T01:18:47.835Z,100654.14
2019-04-10T01:21:18.020Z,100650.99
2019-04-10T01:23:47.600Z,100649.51
2019-04-10T01:26:17.047Z,100650.81
2019-04-10T01:28:47.105Z,100649.47
2019-04-10T01:31:17.165Z,100653.13
2019-04-10T01:33:47.452Z,100650.78
2019-04-10T01:36:18.533Z,100650.30
2019-04-10T01:38:49.492Z,100651.77
2019-04-10T01:41:19.530Z,100652.92
2019-04-10T01:43:49.051Z,100654.42
2019-04-10T01:46:18.428Z,100651.09
2019-04-10T01:48:47.772Z,100651.75
2019-04-10T01:51:17.236Z,100653.39
2019-04-10T01:53:46.955Z,100654.02
2019-04-10T01:56:26.999Z,100651.06
2019-04-10T01:58:48.350Z,100655.83
2019-04-10T02:01:21.121Z,100658.30
2019-04-10T02:03:50.402Z,100660.91
2019-04-10T02:06:19.666Z,100651.97
2019-04-10T02:08:49.981Z,100651.16
2019-04-10T02:11:19.412Z,100653.29
2019-04-10T02:13:49.707Z,100659.23
2019-04-10T02:16:19.093Z,100660.20
2019-04-10T02:18:49.891Z,100659.54
2019-04-10T02:21:19.957Z,100660.81
2019-04-10T02:23:50.303Z,100660.30
2019-04-10T02:26:21.303Z,100663.91
2019-04-10T02:28:51.362Z,100665.39
2019-04-10T02:31:21.509Z,100661.55
2019-04-10T02:33:53.619Z,100662.70
2019-04-10T02:36:23.616Z,100660.05
2019-04-10T02:39:05.647Z,100658.69
2019-04-10T02:41:25.416Z,100659.16
2019-04-10T02:43:55.584Z,100668.21
2019-04-10T02:46:25.110Z,100653.63
2019-04-10T02:48:55.983Z,100663.52
2019-04-10T02:51:27.066Z,100667.79
2019-04-10T02:53:58.014Z,100663.96
2019-04-10T02:56:28.530Z,100660.17
2019-04-10T02:58:58.679Z,100655.84
2019-04-10T03:01:28.060Z,100660.59
2019-04-10T03:03:59.231Z,100656.80
2019-04-10T03:06:29.402Z,100663.05
2019-04-10T03:09:14.716Z,100662.20
2019-04-10T03:11:31.279Z,100672.92
2019-04-10T03:14:02.201Z,100668.61
2019-04-10T03:16:32.314Z,100663.42
2019-04-10T03:19:01.715Z,100664.20
2019-04-10T03:21:31.353Z,100667.98
2019-04-10T03:24:00.759Z,100669.30
2019-04-10T03:26:30.139Z,100672.59
2019-04-10T03:28:59.725Z,100662.50
2019-04-10T03:31:31.887Z,100670.04
2019-04-10T03:34:22.322Z,100657.50
2019-04-10T03:36:51.776Z,100661.40
2019-04-10T03:39:21.606Z,100666.97
2019-04-10T03:41:51.123Z,100666.30
2019-04-10T03:44:20.823Z,100667.43
2019-04-10T03:46:51.022Z,100663.64
2019-04-10T03:49:22.106Z,100667.89
2019-04-10T03:51:52.678Z,100667.99
2019-04-10T03:54:22.939Z,100667.32
2019-04-10T03:56:52.347Z,100675.04
2019-04-10T03:59:22.370Z,100677.97
2019-04-10T04:01:51.913Z,100672.70
2019-04-10T04:04:21.623Z,100668.91
2019-04-10T04:06:50.982Z,100677.65
2019-04-10T04:09:20.215Z,100668.71
2019-04-10T04:11:50.295Z,100679.94
2019-04-10T04:14:20.007Z,100678.97
2019-04-10T04:16:51.238Z,100676.95
2019-04-10T04:19:20.593Z,100678.20
2019-04-10T04:21:50.284Z,100675.56
2019-04-10T04:24:21.232Z,100675.86
2019-04-10T04:26:51.246Z,100684.41
2019-04-10T04:29:21.363Z,100682.39
2019-04-10T04:31:51.280Z,100684.34
2019-04-10T04:34:20.976Z,100688.30
2019-04-10T04:36:51.410Z,100693.93
2019-04-10T04:39:26.409Z,100697.88
2019-04-10T04:41:52.650Z,100698.84
2019-04-10T04:44:22.241Z,100702.16
2019-04-10T04:46:52.637Z,100709.11
2019-04-10T04:49:22.111Z,100707.44
2019-04-10T04:51:52.580Z,100709.14
2019-04-10T04:54:22.085Z,100716.44
2019-04-10T04:56:52.486Z,100719.56
2019-04-10T04:59:21.961Z,100718.05
2019-04-10T05:01:52.990Z,100714.73
2019-04-10T05:04:22.940Z,100723.03
2019-04-10T05:06:52.276Z,100728.53
2019-04-10T05:09:31.234Z,100733.32
2019-04-10T05:11:53.321Z,100733.03
2019-04-10T05:14:23.744Z,100736.54
2019-04-10T05:16:53.919Z,100742.03
2019-04-10T05:19:23.340Z,100745.55
2019-04-10T05:21:52.637Z,100747.56
2019-04-10T05:24:22.334Z,100742.80
2019-04-10T05:26:52.289Z,100753.09
2019-04-10T05:29:21.742Z,100755.50
2019-04-10T05:31:51.080Z,100753.38
2019-04-10T05:34:20.527Z,100762.51
2019-04-10T05:36:49.881Z,100773.74
2019-04-10T05:39:19.563Z,100775.92
2019-04-10T05:41:50.291Z,100781.45
2019-04-10T05:44:20.163Z,100784.49
2019-04-10T05:46:50.221Z,100786.84
2019-04-10T05:49:20.657Z,100790.86
2019-04-10T05:51:53.284Z,100794.48
2019-04-10T05:54:24.599Z,100794.73
2019-04-10T05:56:54.672Z,100794.56
2019-04-10T05:59:24.138Z,100798.58
2019-04-10T06:01:54.058Z,100802.59
2019-04-10T06:04:23.610Z,100800.97
2019-04-10T06:06:52.938Z,100804.66
2019-04-10T06:09:22.793Z,100802.25
2019-04-10T06:11:53.179Z,100802.98
2019-04-10T06:14:22.566Z,100810.16
2019-04-10T06:16:53.088Z,100805.59
2019-04-10T06:19:23.040Z,100810.04
2019-04-10T06:21:53.057Z,100803.00
2019-04-10T06:24:22.473Z,100805.85
2019-04-10T06:26:52.092Z,100799.78
2019-04-10T06:29:21.518Z,100810.77
2019-04-10T06:31:52.684Z,100811.70
2019-04-10T06:34:22.735Z,100806.90
2019-04-10T06:36:53.479Z,100807.60
2019-04-10T06:39:23.130Z,100807.33
2019-04-10T06:41:52.504Z,100815.33
2019-04-10T06:44:22.164Z,100811.88
2019-04-10T06:46:52.813Z,100815.67
2019-04-10T06:49:22.813Z,100816.02
2019-04-10T06:51:53.553Z,100815.20
2019-04-10T06:54:24.711Z,100819.38
2019-04-10T06:56:54.563Z,100824.66
2019-04-10T06:59:24.053Z,100815.72
2019-04-10T07:01:56.733Z,100820.39
2019-04-10T07:04:25.581Z,100818.41
2019-04-10T07:07:00.776Z,100825.20
2019-04-10T07:09:27.156Z,100824.38
2019-04-10T07:11:59.723Z,100831.82
2019-04-10T07:14:28.705Z,100827.33
2019-04-10T07:17:05.052Z,100828.66
2019-04-10T07:19:30.330Z,100829.50
2019-04-10T07:22:01.473Z,100828.34
2019-04-10T07:24:34.471Z,100825.98
2019-04-10T07:27:03.523Z,100827.61
2019-04-10T07:29:34.120Z,100823.80
2019-04-10T07:32:07.674Z,100822.27
2019-04-10T07:34:36.183Z,100817.59
2019-04-10T07:37:05.823Z,100814.30
2019-04-10T07:39:35.192Z,100823.36
2019-04-10T07:42:04.449Z,100827.72
2019-04-10T07:44:33.967Z,100830.50
2019-04-10T07:47:03.398Z,100832.78
2019-04-10T07:49:33.012Z,100831.45
2019-04-10T07:52:03.621Z,100833.19
2019-04-10T07:54:33.337Z,100832.80
2019-04-10T07:57:02.669Z,100836.78
2019-04-10T07:59:31.877Z,100833.09
2019-04-10T08:02:02.398Z,100832.31
2019-04-10T08:04:31.814Z,100836.38
2019-04-10T08:07:02.998Z,100834.64
2019-04-10T08:09:33.476Z,100841.61
2019-04-10T08:12:03.016Z,100842.70
2019-04-10T08:14:32.536Z,100837.77
2019-04-10T08:17:01.791Z,100841.90
2019-04-10T08:19:31.346Z,100845.66
2019-04-10T08:22:03.662Z,100842.54
2019-04-10T08:24:33.062Z,100838.41
2019-04-10T08:27:03.301Z,100843.23
2019-04-10T08:29:32.606Z,100847.05
2019-04-10T08:32:03.453Z,100845.07
2019-04-10T08:34:33.618Z,100851.72
2019-04-10T08:37:03.829Z,100850.17
2019-04-10T08:39:41.124Z,100846.83
2019-04-10T08:42:06.516Z,100848.44
2019-04-10T08:44:36.130Z,100844.53
2019-04-10T08:47:05.457Z,100854.42
2019-04-10T08:49:36.745Z,100845.71
2019-04-10T08:52:06.261Z,100855.47
2019-04-10T08:54:36.382Z,100850.06
2019-04-10T08:57:05.806Z,100857.89
2019-04-10T08:59:36.804Z,100857.69
2019-04-10T09:02:06.275Z,100853.39
2019-04-10T09:04:36.959Z,100858.42
2019-04-10T09:07:08.303Z,100855.94
2019-04-10T09:09:37.995Z,100852.00
2019-04-10T09:12:07.400Z,100855.23
2019-04-10T09:14:37.155Z,100855.42
2019-04-10T09:17:06.977Z,100865.20
2019-04-10T09:19:36.470Z,100861.41
2019-04-10T09:22:05.992Z,100861.91
2019-04-10T09:24:36.206Z,100858.66
2019-04-10T09:27:05.768Z,100856.58
2019-04-10T09:29:36.110Z,100849.27
2019-04-10T09:32:06.418Z,100856.16
2019-04-10T09:34:36.042Z,100852.91
2019-04-10T09:37:06.008Z,100851.19
2019-04-10T09:39:36.775Z,100854.19
2019-04-10T09:42:06.770Z,100849.80
2019-04-10T09:44:36.232Z,100845.14
2019-04-10T09:47:05.626Z,100847.08
2019-04-10T09:49:41.980Z,100841.79
2019-04-10T09:52:27.783Z,100839.84
2019-04-10T09:54:57.619Z,100843.63
2019-04-10T09:57:27.026Z,100843.14
2019-04-10T09:59:57.179Z,100854.36
2019-04-10T10:02:27.449Z,100850.35
2019-04-10T10:04:57.816Z,100842.86
2019-04-10T10:07:28.368Z,100844.44
2019-04-10T10:10:00.692Z,100847.73
2019-04-10T10:12:29.018Z,100847.56
2019-04-10T10:14:58.291Z,100844.28
2019-04-10T10:17:28.529Z,100840.38
2019-04-10T10:19:58.104Z,100839.99
2019-04-10T10:22:27.467Z,100838.21
2019-04-10T10:24:57.725Z,100834.78
2019-04-10T10:27:27.184Z,100843.34
2019-04-10T10:29:57.843Z,100837.27
2019-04-10T10:32:28.911Z,100837.02
2019-04-10T10:34:58.849Z,100841.29
2019-04-10T10:37:28.674Z,100838.66
2019-04-10T10:39:59.122Z,100836.70
2019-04-10T10:42:29.692Z,100841.28
2019-04-10T10:44:59.273Z,100842.81
2019-04-10T10:47:29.311Z,100838.51
2019-04-10T10:49:59.259Z,100834.84
2019-04-10T10:52:28.562Z,100839.40
2019-04-10T10:54:59.079Z,100841.40
2019-04-10T10:57:29.301Z,100844.34
2019-04-10T10:59:59.838Z,100845.06
2019-04-10T11:02:29.688Z,100850.05
2019-04-10T11:05:02.386Z,100841.37
2019-04-10T11:07:31.319Z,100850.52
2019-04-10T11:10:01.330Z,100851.78
2019-04-10T11:12:30.929Z,100846.47
2019-04-10T11:15:01.961Z,100846.09
2019-04-10T11:17:31.597Z,100837.70
2019-04-10T11:20:02.324Z,100843.66
2019-04-10T11:22:33.150Z,100845.45
2019-04-10T11:25:03.732Z,100844.49
2019-04-10T11:27:34.343Z,100845.83
2019-04-10T11:30:08.396Z,100848.24
2019-04-10T11:32:38.750Z,100848.14
2019-04-10T11:35:08.269Z,100853.14
2019-04-10T11:37:44.408Z,100854.34
2019-04-10T11:40:09.248Z,100857.65
2019-04-10T11:42:39.963Z,100858.70
2019-04-10T11:45:11.082Z,100862.48
2019-04-10T11:47:44.978Z,100860.58
2019-04-10T11:50:18.769Z,100859.16
2019-04-10T11:52:53.177Z,100857.36
2019-04-10T11:55:21.354Z,100862.33
2019-04-10T11:57:51.590Z,100857.87
2019-04-10T12:00:45.384Z,100853.73
2019-04-10T12:03:10.032Z,100864.23
2019-04-10T12:05:41.128Z,100865.98
2019-04-10T12:13:16.438Z,100857.61
2019-04-10T12:15:45.046Z,100858.48
2019-04-10T12:18:14.457Z,100863.70
2019-04-10T12:20:45.141Z,100861.73
2019-04-10T12:23:14.676Z,100861.80
2019-04-10T12:25:45.006Z,100864.45
2019-04-10T12:28:14.456Z,100864.99
2019-04-10T12:30:43.883Z,100871.34
2019-04-10T12:33:13.715Z,100871.93
2019-04-10T12:35:43.340Z,100864.45
2019-04-10T12:38:13.468Z,100875.09
2019-04-10T12:40:42.823Z,100872.91
2019-04-10T12:43:12.685Z,100872.01
2019-04-10T12:45:42.002Z,100865.36
2019-04-10T12:48:12.545Z,100870.02
2019-04-10T12:50:45.343Z,100874.66
2019-04-10T12:53:17.082Z,100875.48
2019-04-10T12:55:46.364Z,100884.06
2019-04-10T12:58:17.714Z,100871.49
2019-04-10T13:00:48.007Z,100876.34
2019-04-10T13:03:18.736Z,100874.62
2019-04-10T13:05:48.037Z,100870.54
2019-04-10T13:08:22.808Z,100865.34
2019-04-10T13:10:54.171Z,100872.22
2019-04-10T13:13:24.265Z,100861.03
2019-04-10T13:15:54.084Z,100861.21
2019-04-10T13:18:24.672Z,100864.59
2019-04-10T13:20:57.928Z,100858.89
2019-04-10T13:23:27.291Z,100864.81
2019-04-10T13:26:01.012Z,100863.66
2019-04-10T13:28:27.740Z,100862.85
2019-04-10T13:30:59.510Z,100854.31
2019-04-10T13:33:28.968Z,100859.19
2019-04-10T13:35:59.468Z,100862.47
2019-04-10T13:38:33.510Z,100857.87
2019-04-10T13:40:59.935Z,100860.14
2019-04-10T13:43:29.740Z,100860.98
2019-04-10T13:45:59.154Z,100864.86
2019-04-10T13:48:29.222Z,100861.57
2019-04-10T13:50:59.080Z,100859.66
2019-04-10T13:53:28.469Z,100857.05
2019-04-10T13:55:58.977Z,100861.34
2019-04-10T13:58:29.003Z,100852.01
2019-04-10T14:00:58.794Z,100850.14
2019-04-10T14:03:28.301Z,100854.15
2019-04-10T14:05:57.720Z,100855.61
2019-04-10T14:08:41.238Z,100856.92
2019-04-10T14:10:58.320Z,100863.21
2019-04-10T14:13:27.703Z,100856.82
2019-04-10T14:15:58.073Z,100848.80
2019-04-10T14:18:27.510Z,100856.24
2019-04-10T14:20:56.906Z,100852.22
2019-04-10T14:23:31.345Z,100856.73
2019-04-10T14:26:43.735Z,100849.37
2019-04-10T14:29:14.739Z,100855.80
2019-04-10T14:31:49.018Z,100859.01
2019-04-10T14:34:18.852Z,100870.38
2019-04-10T14:36:49.124Z,100865.25
2019-04-10T14:39:21.191Z,100872.76
2019-04-10T14:41:51.796Z,100861.63
2019-04-10T14:44:21.211Z,100863.27
2019-04-10T14:46:51.784Z,100870.94
2019-04-10T14:49:22.020Z,100871.02
2019-04-10T14:51:52.400Z,100882.02
2019-04-10T14:54:21.870Z,100878.73
2019-04-10T14:56:51.237Z,100877.23
2019-04-10T14:59:21.846Z,100876.70
2019-04-10T15:01:52.615Z,100880.38
2019-04-10T15:04:22.447Z,100878.11
2019-04-10T15:06:51.756Z,100882.56
2019-04-10T15:09:25.939Z,100877.48
2019-04-10T15:11:55.256Z,100877.17
2019-04-10T15:14:25.870Z,100877.75
2019-04-10T15:17:02.648Z,100876.88
2019-04-10T15:19:26.919Z,100880.20
2019-04-10T15:21:56.452Z,100881.48
2019-04-10T15:24:25.915Z,100887.91
2019-04-10T15:26:55.657Z,100885.56
2019-04-10T15:29:25.972Z,100888.80
2019-04-10T15:31:55.877Z,100894.00
2019-04-10T15:34:26.106Z,100891.09
2019-04-10T15:36:56.384Z,100889.95
2019-04-10T15:39:33.906Z,100891.21
2019-04-10T15:41:59.280Z,100892.75
2019-04-10T15:44:29.856Z,100899.91
2019-04-10T15:47:10.650Z,100897.09
2019-04-10T15:49:31.041Z,100899.16
2019-04-10T15:52:01.574Z,100898.33
2019-04-10T15:54:32.079Z,100901.92
2019-04-10T15:57:02.656Z,100900.73
2019-04-10T15:59:32.431Z,100903.53
2019-04-10T16:02:02.073Z,100904.03
2019-04-10T16:04:31.735Z,100908.39
2019-04-10T16:07:02.081Z,100909.80
2019-04-10T16:09:44.455Z,100899.91
2019-04-10T16:12:11.217Z,100912.83
2019-04-10T16:14:40.724Z,100910.20
2019-04-10T16:17:27.526Z,100914.59
2019-04-10T16:20:07.058Z,100908.48
2019-04-10T16:22:56.612Z,100908.14
2019-04-10T16:25:30.174Z,100913.39
2019-04-10T16:28:02.133Z,100916.81
2019-04-10T16:30:32.999Z,100913.42
2019-04-10T16:33:02.985Z,100915.45
2019-04-10T16:35:35.442Z,100916.50
2019-04-10T16:38:06.540Z,100922.16
2019-04-10T16:40:36.460Z,100921.49
2019-04-10T16:43:07.892Z,100921.94
2019-04-10T16:45:38.523Z,100926.63
2019-04-10T16:48:08.726Z,100927.91
2019-04-10T16:50:42.092Z,100933.00
2019-04-10T16:53:11.883Z,100929.03
2019-04-10T16:55:43.085Z,100934.78
2019-04-10T16:58:13.746Z,100932.08
2019-04-10T17:00:43.424Z,100940.86
2019-04-10T17:03:13.554Z,100944.38
2019-04-10T17:05:43.844Z,100940.48
2019-04-10T17:08:14.041Z,100942.17
2019-04-10T17:10:44.778Z,100942.03
2019-04-10T17:13:14.484Z,100940.12
2019-04-10T17:15:44.190Z,100938.38
2019-04-10T17:18:14.852Z,100945.13
2019-04-10T17:20:44.670Z,100954.27
2019-04-10T17:23:14.290Z,100956.00
2019-04-10T17:25:44.449Z,100953.28
2019-04-10T17:28:14.366Z,100953.91
2019-04-10T17:30:44.225Z,100958.28
2019-04-10T17:33:14.016Z,100963.37
2019-04-10T17:35:43.554Z,100963.06
2019-04-10T17:38:14.238Z,100967.83
2019-04-10T17:40:50.937Z,100964.64
2019-04-10T17:43:16.856Z,100968.98
2019-04-10T17:45:46.921Z,100969.88
2019-04-10T17:48:17.799Z,100976.73
2019-04-10T17:50:48.021Z,100982.23
2019-04-10T17:53:18.471Z,100981.53
2019-04-10T17:55:49.563Z,100981.95
2019-04-10T17:58:19.637Z,100991.05
2019-04-10T18:00:52.115Z,100982.25
2019-04-10T18:03:23.269Z,100989.44
2019-04-10T18:05:53.175Z,100999.92
2019-04-10T18:08:26.395Z,101002.08
2019-04-10T18:10:55.704Z,100996.91
2019-04-10T18:13:26.716Z,100997.74
2019-04-10T18:15:57.103Z,101005.45
2019-04-10T18:18:27.505Z,101013.55
2019-04-10T18:20:58.178Z,101017.91
2019-04-10T18:23:28.268Z,101015.58
2019-04-10T18:25:58.310Z,101021.63
2019-04-10T18:28:30.941Z,101023.03
2019-04-10T18:31:00.622Z,101031.58
2019-04-10T18:33:30.877Z,101033.74
2019-04-10T18:36:00.695Z,101035.31
2019-04-10T18:38:31.074Z,101047.81
2019-04-10T18:41:05.211Z,101060.45
2019-04-10T18:43:32.467Z,101057.34
2019-04-10T18:46:11.480Z,101057.67
2019-04-10T18:48:35.084Z,101055.86
2019-04-10T18:51:06.635Z,101060.01
2019-04-10T18:53:37.602Z,101067.82
2019-04-10T18:56:07.282Z,101067.48
2019-04-10T18:58:43.697Z,101066.28
2019-04-10T19:01:41.181Z,101070.91
2019-04-10T19:04:28.287Z,101079.05
2019-04-10T19:06:59.364Z,101081.19
2019-04-10T19:09:32.470Z,101079.83
2019-04-10T19:12:04.911Z,101081.33
2019-04-10T19:14:36.545Z,101079.80
2019-04-10T19:17:09.136Z,101076.28
2019-04-10T19:19:41.786Z,101084.93
2019-04-10T19:22:13.095Z,101084.09
2019-04-10T19:24:44.049Z,101085.91
2019-04-10T19:27:14.211Z,101089.71
2019-04-10T19:29:43.892Z,101090.06
2019-04-10T19:32:22.593Z,101091.34
2019-04-10T19:34:52.465Z,101094.45
2019-04-10T19:37:22.881Z,101097.53
2019-04-10T19:39:52.733Z,101100.05
2019-04-10T19:42:22.296Z,101105.58
2019-04-10T19:44:53.066Z,101106.02
2019-04-10T19:47:23.042Z,101108.57
2019-04-10T19:49:53.051Z,101107.84
2019-04-10T19:52:22.871Z,101110.66
2019-04-10T19:54:53.411Z,101108.61
2019-04-10T19:57:23.708Z,101107.77
2019-04-10T19:59:55.654Z,101111.96
2019-04-10T20:02:25.319Z,101108.71
2019-04-10T20:04:56.968Z,101109.81
2019-04-10T20:07:27.113Z,101111.66
2019-04-10T20:09:56.967Z,101112.09
2019-04-10T20:12:28.719Z,101108.55
2019-04-10T20:14:59.456Z,101123.00
2019-04-10T20:17:30.252Z,101124.58
2019-04-10T20:20:00.003Z,101122.20
2019-04-10T20:22:30.715Z,101129.40
2019-04-10T20:25:00.523Z,101130.91
2019-04-10T20:27:30.243Z,101131.06
2019-04-10T20:29:59.792Z,101143.86
2019-04-10T20:32:30.163Z,101149.50
2019-04-10T20:35:00.102Z,101148.25
2019-04-10T20:37:31.014Z,101151.25
2019-04-10T20:40:01.282Z,101151.73
2019-04-10T20:42:32.118Z,101151.30
2019-04-10T20:45:01.926Z,101151.78
2019-04-10T20:47:31.560Z,101160.28
2019-04-10T20:50:01.881Z,101162.41
2019-04-10T20:52:32.531Z,101158.87
2019-04-10T20:55:02.154Z,101164.36
2019-04-10T20:57:31.945Z,101162.50
2019-04-10T21:00:01.796Z,101161.03
2019-04-10T21:02:31.401Z,101161.13
2019-04-10T21:05:06.045Z,101166.62
2019-04-10T21:07:31.952Z,101168.03
2019-04-10T21:10:01.326Z,101178.12
2019-04-10T21:12:30.623Z,101174.08
2019-04-10T21:14:59.896Z,101180.90
2019-04-10T21:17:29.940Z,101183.34
2019-04-10T21:20:00.086Z,101181.14
2019-04-10T21:22:30.672Z,101180.46
2019-04-10T21:25:00.614Z,101183.39
2019-04-10T21:27:30.050Z,101185.39
2019-04-10T21:30:18.452Z,101186.67
2019-04-10T21:33:09.603Z,101189.00
2019-04-10T21:35:39.410Z,101184.47
2019-04-10T21:38:08.915Z,101187.31
2019-04-10T21:40:38.990Z,101189.83
2019-04-10T21:43:08.518Z,101194.08
2019-04-10T21:45:37.818Z,101198.45
2019-04-10T21:48:08.274Z,101195.64
2019-04-10T21:50:37.786Z,101201.44
2019-04-10T21:53:08.103Z,101204.27
2019-04-10T21:55:37.537Z,101203.34
2019-04-10T21:58:08.064Z,101200.70
2019-04-10T22:00:57.435Z,101196.73
2019-04-10T22:03:27.525Z,101203.95
2019-04-10T22:06:09.274Z,101205.80
2019-04-10T22:08:48.025Z,101201.72
2019-04-10T22:11:17.521Z,101201.25
2019-04-10T22:13:47.260Z,101199.88
2019-04-10T22:16:19.858Z,101202.61
2019-04-10T22:18:49.808Z,101205.45
2019-04-10T22:21:19.132Z,101205.05
2019-04-10T22:23:49.051Z,101206.97
2019-04-10T22:26:18.438Z,101205.84
2019-04-10T22:28:47.725Z,101205.44
2019-04-10T22:31:18.105Z,101205.44
2019-04-10T22:33:48.843Z,101211.97
2019-04-10T22:36:18.125Z,101207.39
2019-04-10T22:38:47.352Z,101209.98
2019-04-10T22:41:23.684Z,101204.02
2019-04-10T22:43:49.123Z,101204.62
2019-04-10T22:46:19.325Z,101209.80
2019-04-10T22:48:49.971Z,101212.45
2019-04-10T22:51:19.335Z,101208.22
2019-04-10T22:53:48.604Z,101208.41
2019-04-10T22:56:17.935Z,101205.23
2019-04-10T22:58:47.131Z,101217.73
2019-04-10T23:01:16.579Z,101214.74
2019-04-10T23:03:45.814Z,101207.24
2019-04-10T23:06:15.375Z,101217.31
2019-04-10T23:08:44.764Z,101210.66
2019-04-10T23:11:15.185Z,101213.41
2019-04-10T23:13:44.500Z,101220.08
2019-04-10T23:16:15.753Z,101216.75
2019-04-10T23:18:45.656Z,101219.06
2019-04-10T23:21:14.853Z,101222.60
2019-04-10T23:23:45.341Z,101220.34
2019-04-10T23:26:15.861Z,101220.82
2019-04-10T23:28:45.285Z,101224.09
2019-04-10T23:31:15.211Z,101221.09
2019-04-10T23:33:44.591Z,101224.45
2019-04-10T23:36:14.005Z,101227.15
2019-04-10T23:38:43.796Z,101221.61
2019-04-10T23:41:14.368Z,101226.31
2019-04-10T23:43:44.038Z,101229.94
2019-04-10T23:46:14.500Z,101233.48
2019-04-10T23:48:44.675Z,101224.66
2019-04-10T23:51:14.754Z,101233.17
2019-04-10T23:53:44.773Z,101232.95
2019-04-10T23:56:14.120Z,101237.28
2019-04-10T23:58:44.436Z,101232.69
